Time;durP1;ratioP1;P1;durP2;ratioP2;P2;SDS_P1;SDS_P2;PMS_P1;PMS_P2;Temp;Humidity;BMP_temperature;BMP_pressure;BME280_temperature;BME280_humidity;BME280_pressure;Samples;Min_cycle;Max_cycle;Signal;HPM_P1;HPM_P2
2022/01/20 00:01:46;;;;;;;21.50;12.18;;;19.90;50.80;;;;;;5099264;28;20036;-71
2022/01/20 00:04:13;;;;;;;19.52;12.90;;;19.90;50.80;;;;;;5097240;28;20040;-71
2022/01/20 00:26:03;;;;;;;25.83;14.55;;;19.60;50.80;;;;;;5099149;28;20040;-71
2022/01/20 00:34:15;;;;;;;27.33;14.05;;;19.70;50.80;;;;;;5085701;28;20110;-71
2022/01/20 00:37:27;;;;;;;24.60;12.75;;;19.70;50.90;;;;;;5099074;28;20044;-71
2022/01/20 00:39:30;;;;;;;25.55;14.00;;;19.60;50.80;;;;;;5084667;28;20048;-71
2022/01/20 00:41:56;;;;;;;24.65;13.38;;;19.50;50.70;;;;;;5098885;28;20048;-71
2022/01/20 00:44:24;;;;;;;25.20;15.32;;;19.60;50.70;;;;;;5098744;28;20056;-72
2022/01/20 00:46:50;;;;;;;25.95;13.50;;;19.60;50.60;;;;;;5097846;28;20044;-71
2022/01/20 00:49:16;;;;;;;28.65;14.55;;;19.60;50.40;;;;;;5094721;28;20040;-70
2022/01/20 00:51:43;;;;;;;21.45;12.50;;;19.60;50.30;;;;;;5098379;28;20071;-71
2022/01/20 00:54:09;;;;;;;27.10;15.02;;;19.60;50.20;;;;;;5097553;28;20047;-71
2022/01/20 00:56:35;;;;;;;25.27;15.50;;;19.60;50.10;;;;;;5098762;28;20040;-71
2022/01/20 00:59:01;;;;;;;27.27;15.25;;;19.70;50.20;;;;;;5098522;28;20051;-71
2022/01/20 01:01:27;;;;;;;26.23;14.70;;;19.70;50.10;;;;;;5097614;28;20052;-71
2022/01/20 01:03:54;;;;;;;30.15;16.00;;;19.70;50.00;;;;;;5098434;28;20114;-71
2022/01/20 01:09:06;;;;;;;33.90;17.40;;;19.70;49.80;;;;;;5097506;28;20041;-71
2022/01/20 01:11:33;;;;;;;33.80;19.02;;;19.70;49.80;;;;;;5098097;28;20044;-71
2022/01/20 01:14:01;;;;;;;31.30;17.08;;;19.80;49.60;;;;;;5097396;28;20069;-71
2022/01/20 01:16:42;;;;;;;30.63;17.67;;;19.70;49.70;;;;;;5097257;28;20104;-71
2022/01/20 01:22:13;;;;;;;39.10;18.90;;;19.70;49.60;;;;;;5097160;28;20063;-71
2022/01/20 01:24:42;;;;;;;32.78;17.98;;;19.90;49.60;;;;;;5097910;28;20040;-71
2022/01/20 01:27:10;;;;;;;33.75;18.90;;;19.80;49.60;;;;;;5097357;28;20049;-71
2022/01/20 01:32:16;;;;;;;35.85;18.40;;;19.80;49.50;;;;;;5097657;28;20064;-71
2022/01/20 01:34:48;;;;;;;29.63;17.70;;;19.90;49.50;;;;;;5097781;28;20096;-71
2022/01/20 01:37:36;;;;;;;26.77;16.88;;;19.90;49.40;;;;;;5097755;28;20044;-71
2022/01/20 01:40:19;;;;;;;33.47;17.70;;;19.90;49.40;;;;;;5097100;28;20082;-71
2022/01/20 01:43:01;;;;;;;34.88;18.88;;;19.80;49.30;;;;;;5097432;28;20051;-71
2022/01/20 01:45:29;;;;;;;30.95;16.10;;;19.90;49.40;;;;;;5096754;28;20040;-71
2022/01/20 01:47:56;;;;;;;27.85;16.20;;;20.00;49.30;;;;;;5096840;28;20044;-71
2022/01/20 01:50:25;;;;;;;28.83;17.05;;;19.90;49.20;;;;;;5096587;28;20037;-71
2022/01/20 01:52:53;;;;;;;29.85;16.50;;;19.90;49.20;;;;;;5096713;28;20072;-71
2022/01/20 01:55:21;;;;;;;27.52;15.98;;;19.90;49.20;;;;;;5097549;28;20071;-71
2022/01/20 01:57:47;;;;;;;30.25;15.48;;;19.80;49.20;;;;;;5096272;28;20710;-71
2022/01/20 02:00:17;;;;;;;29.88;16.20;;;19.90;49.30;;;;;;5096550;28;20067;-71
2022/01/20 02:02:50;;;;;;;28.60;15.63;;;19.90;49.30;;;;;;5096599;28;20041;-71
2022/01/20 02:05:21;;;;;;;30.27;16.00;;;19.80;49.30;;;;;;5096497;28;20040;-71
2022/01/20 02:18:59;;;;;;;20.48;13.82;;;19.80;49.60;;;;;;5096951;28;20055;-71
2022/01/20 02:21:55;;;;;;;25.83;14.63;;;19.70;49.50;;;;;;5096410;28;20036;-71
2022/01/20 02:24:24;;;;;;;20.70;13.57;;;19.70;49.20;;;;;;5096152;28;20036;-71
2022/01/20 02:26:51;;;;;;;25.92;15.07;;;19.70;49.20;;;;;;5113003;28;20075;-71
2022/01/20 02:29:22;;;;;;;24.92;14.60;;;19.70;49.10;;;;;;5096380;28;20103;-71
2022/01/20 02:31:55;;;;;;;23.08;14.10;;;19.70;49.00;;;;;;5095621;28;20044;-71
2022/01/20 02:34:23;;;;;;;27.02;14.27;;;19.80;48.90;;;;;;5096749;28;20041;-70
2022/01/20 02:36:49;;;;;;;22.00;12.98;;;19.80;48.80;;;;;;5096211;28;20078;-71
2022/01/20 02:47:18;;;;;;;23.50;12.77;;;19.80;48.70;;;;;;5093782;28;20060;-71
2022/01/20 02:49:45;;;;;;;23.70;14.02;;;19.70;48.80;;;;;;5096732;28;20044;-71
2022/01/20 02:52:11;;;;;;;19.77;13.13;;;19.70;48.70;;;;;;5079028;28;20104;-71
2022/01/20 02:54:38;;;;;;;21.27;12.55;;;19.60;48.80;;;;;;5079207;28;20044;-71
2022/01/20 02:57:05;;;;;;;22.15;11.70;;;19.60;48.90;;;;;;5079368;28;20048;-71
2022/01/20 02:59:34;;;;;;;20.27;12.70;;;19.70;49.20;;;;;;5079042;28;20044;-71
2022/01/20 03:02:02;;;;;;;22.83;12.23;;;19.60;49.10;;;;;;5079035;28;20040;-71
2022/01/20 03:04:30;;;;;;;20.60;11.40;;;19.60;49.20;;;;;;5096527;28;20044;-71
2022/01/20 03:06:59;;;;;;;22.52;13.15;;;19.50;49.20;;;;;;5112287;28;20052;-71
2022/01/20 03:09:25;;;;;;;21.95;11.55;;;19.50;49.30;;;;;;5079172;28;20036;-71
2022/01/20 03:11:51;;;;;;;15.85;11.00;;;19.50;49.00;;;;;;5096358;28;20051;-71
2022/01/20 03:14:18;;;;;;;17.40;11.02;;;19.50;48.90;;;;;;5095796;28;20048;-71
2022/01/20 03:16:46;;;;;;;22.85;11.57;;;19.50;48.80;;;;;;5079049;28;20048;-71
2022/01/20 03:19:13;;;;;;;20.98;11.85;;;19.60;48.60;;;;;;5096379;28;20554;-71
2022/01/20 03:21:40;;;;;;;18.92;11.13;;;19.60;48.60;;;;;;5078757;28;20055;-71
2022/01/20 03:24:08;;;;;;;12.73;8.70;;;19.50;48.60;;;;;;5080732;28;20048;-71
2022/01/20 03:26:37;;;;;;;18.00;9.68;;;19.50;48.70;;;;;;5083059;28;20032;-71
2022/01/20 03:29:06;;;;;;;19.63;9.88;;;19.50;48.90;;;;;;5082470;28;20044;-71
2022/01/20 03:31:33;;;;;;;19.35;10.40;;;19.50;48.90;;;;;;5082577;28;20039;-71
2022/01/20 03:33:59;;;;;;;15.40;10.00;;;19.40;49.00;;;;;;5100146;28;20044;-70
2022/01/20 03:36:26;;;;;;;20.30;10.50;;;19.40;49.00;;;;;;5082734;28;20104;-70
2022/01/20 03:39:02;;;;;;;18.45;9.88;;;19.60;49.20;;;;;;5082635;28;20048;-70
2022/01/20 03:41:28;;;;;;;18.75;11.25;;;19.30;48.90;;;;;;5082476;28;20044;-71
2022/01/20 03:43:57;;;;;;;15.15;9.98;;;19.30;48.70;;;;;;5082433;28;20466;-71
2022/01/20 03:46:23;;;;;;;17.60;10.57;;;19.40;48.50;;;;;;5082703;28;20039;-71
2022/01/20 03:48:52;;;;;;;16.17;9.35;;;19.30;48.50;;;;;;5082459;28;20025;-71
2022/01/20 03:51:21;;;;;;;17.40;10.40;;;19.40;48.30;;;;;;5099900;28;20032;-71
2022/01/20 03:53:53;;;;;;;14.30;9.68;;;19.30;48.20;;;;;;5082209;28;20041;-71
2022/01/20 03:56:23;;;;;;;15.57;9.25;;;19.40;48.20;;;;;;5082322;28;20047;-71
2022/01/20 03:58:58;;;;;;;14.32;9.20;;;19.40;48.00;;;;;;5082264;28;20060;-71
2022/01/20 04:01:25;;;;;;;12.55;8.63;;;19.40;48.00;;;;;;5082357;28;20040;-71
2022/01/20 04:04:13;;;;;;;13.52;8.70;;;19.50;47.90;;;;;;5082004;28;20041;-71
2022/01/20 04:06:50;;;;;;;13.60;9.05;;;19.40;47.80;;;;;;5082121;28;20040;-71
2022/01/20 04:09:16;;;;;;;17.55;9.15;;;19.40;47.80;;;;;;5082129;28;20052;-71
2022/01/20 04:11:42;;;;;;;18.45;9.13;;;19.50;47.90;;;;;;5081849;28;20040;-71
2022/01/20 04:14:12;;;;;;;14.75;8.15;;;19.40;48.00;;;;;;5073511;28;20044;-71
2022/01/20 04:19:28;;;;;;;16.88;8.30;;;19.30;48.20;;;;;;5078305;28;20045;-71
2022/01/20 04:21:54;;;;;;;15.88;9.02;;;19.30;48.30;;;;;;5079230;28;20064;-71
2022/01/20 04:24:21;;;;;;;13.25;8.63;;;19.30;48.30;;;;;;5078972;28;20060;-71
2022/01/20 04:26:47;;;;;;;17.98;9.68;;;19.40;48.40;;;;;;5079137;28;20033;-75
2022/01/20 04:29:16;;;;;;;15.52;9.00;;;19.30;48.40;;;;;;5078304;28;20071;-70
2022/01/20 04:31:43;;;;;;;15.75;9.25;;;19.30;48.40;;;;;;5078722;28;20136;-71
2022/01/20 04:34:11;;;;;;;17.75;9.20;;;19.30;48.30;;;;;;5078154;28;20048;-71
2022/01/20 04:36:41;;;;;;;15.43;9.07;;;19.20;48.00;;;;;;5077346;28;20052;-71
2022/01/20 04:39:13;;;;;;;14.77;8.98;;;19.40;47.80;;;;;;5077973;28;20077;-71
2022/01/20 04:41:40;;;;;;;16.02;8.70;;;19.40;47.70;;;;;;5078098;28;20041;-71
2022/01/20 04:44:17;;;;;;;13.85;9.13;;;19.50;47.80;;;;;;5077669;28;20045;-71
2022/01/20 04:46:55;;;;;;;14.85;9.70;;;19.50;48.30;;;;;;5078690;28;20040;-71
2022/01/20 04:57:41;;;;;;;15.80;8.98;;;19.40;48.60;;;;;;5095036;28;20044;-71
2022/01/20 05:00:07;;;;;;;14.57;8.95;;;19.30;48.60;;;;;;5098330;28;20093;-71
2022/01/20 05:02:53;;;;;;;17.45;9.82;;;19.40;48.80;;;;;;5079994;28;20051;-71
2022/01/20 05:05:19;;;;;;;17.13;10.55;;;19.50;49.00;;;;;;5097144;28;20058;-71
2022/01/20 05:07:48;;;;;;;14.35;9.07;;;19.50;49.20;;;;;;5096819;28;20059;-71
2022/01/20 05:10:14;;;;;;;17.77;11.05;;;19.60;49.00;;;;;;5097319;28;20058;-70
2022/01/20 05:15:22;;;;;;;14.38;9.27;;;19.60;51.50;;;;;;5079988;28;20044;-71
2022/01/20 05:17:50;;;;;;;20.67;10.05;;;19.90;53.30;;;;;;5096839;28;20043;-70
2022/01/20 05:20:16;;;;;;;16.00;10.38;;;20.20;56.70;;;;;;5096488;28;20036;-70
2022/01/20 05:22:43;;;;;;;23.00;11.13;;;20.60;63.80;;;;;;5079763;28;20045;-75
2022/01/20 05:25:12;;;;;;;23.55;11.13;;;20.80;58.00;;;;;;5079491;28;20056;-74
2022/01/20 05:27:38;;;;;;;29.70;12.02;;;21.00;58.20;;;;;;5079358;28;20071;-77
2022/01/20 05:30:06;;;;;;;23.52;11.25;;;21.10;50.60;;;;;;5079697;28;20104;-74
2022/01/20 05:32:33;;;;;;;18.80;9.82;;;21.20;48.70;;;;;;5079239;28;20087;-77
2022/01/20 05:34:59;;;;;;;17.10;9.90;;;21.20;47.10;;;;;;5095791;28;20041;-75
2022/01/20 05:37:25;;;;;;;17.25;10.43;;;21.20;45.60;;;;;;5096002;28;20051;-71
2022/01/20 05:39:51;;;;;;;15.15;9.98;;;21.30;44.00;;;;;;5095739;28;20041;-71
2022/01/20 05:42:23;;;;;;;16.70;9.77;;;21.10;42.60;;;;;;5078709;28;20040;-70
2022/01/20 05:45:03;;;;;;;17.98;9.45;;;20.90;43.10;;;;;;5095981;28;20032;-70
2022/01/20 05:47:31;;;;;;;18.52;10.02;;;20.70;43.80;;;;;;5095457;28;20062;-70
2022/01/20 05:50:15;;;;;;;19.58;9.57;;;20.50;44.50;;;;;;5096873;28;20040;-70
2022/01/20 05:52:43;;;;;;;18.90;10.27;;;20.50;45.90;;;;;;5079305;28;20066;-71
2022/01/20 05:55:19;;;;;;;15.25;9.70;;;20.30;47.00;;;;;;5079242;28;20058;-71
2022/01/20 05:57:46;;;;;;;10.20;7.05;;;20.20;47.50;;;;;;5079328;28;20045;-71
2022/01/20 06:00:24;;;;;;;7.05;4.75;;;20.00;44.80;;;;;;5079115;28;20045;-71
2022/01/20 06:05:50;;;;;;;12.43;7.80;;;20.50;51.10;;;;;;5065280;28;20041;-72
2022/01/20 06:08:17;;;;;;;11.93;7.00;;;20.70;40.60;;;;;;5088250;28;20036;-72
2022/01/20 06:10:43;;;;;;;15.25;7.40;;;20.70;38.90;;;;;;5095697;28;20103;-71
2022/01/20 06:13:25;;;;;;;12.52;7.60;;;20.60;38.80;;;;;;5078834;28;20069;-70
2022/01/20 06:15:51;;;;;;;11.32;7.22;;;20.60;38.50;;;;;;5078741;28;20044;-70
2022/01/20 06:18:17;;;;;;;12.32;7.63;;;20.50;39.20;;;;;;5078787;28;20040;-71
2022/01/20 06:20:52;;;;;;;10.90;6.97;;;20.60;40.90;;;;;;5095280;28;20048;-71
2022/01/20 06:23:20;;;;;;;11.70;7.35;;;20.60;40.60;;;;;;5078396;28;20075;-71
2022/01/20 06:25:48;;;;;;;13.63;8.23;;;20.70;38.60;;;;;;5094592;28;20056;-71
2022/01/20 06:28:15;;;;;;;13.98;9.15;;;20.60;39.10;;;;;;5078727;28;20036;-71
2022/01/20 06:30:42;;;;;;;10.45;7.60;;;20.80;39.90;;;;;;5078442;28;20047;-71
2022/01/20 06:33:08;;;;;;;17.67;9.13;;;20.90;38.20;;;;;;5078374;28;20052;-71
2022/01/20 06:35:42;;;;;;;13.70;7.88;;;20.90;36.90;;;;;;5078628;28;20535;-69
2022/01/20 06:38:08;;;;;;;16.75;9.40;;;21.10;37.30;;;;;;5078557;28;20108;-70
2022/01/20 06:40:35;;;;;;;13.10;9.32;;;21.10;38.30;;;;;;5078265;28;20053;-71
2022/01/20 06:43:02;;;;;;;16.40;9.23;;;21.20;38.80;;;;;;5095346;28;20040;-71
2022/01/20 06:45:28;;;;;;;15.18;10.32;;;21.20;42.70;;;;;;5078325;28;20044;-71
2022/01/20 06:48:01;;;;;;;21.90;11.18;;;21.30;51.10;;;;;;5078564;28;20033;-70
2022/01/20 06:50:29;;;;;;;25.27;13.60;;;21.20;50.90;;;;;;5111942;28;20059;-71
2022/01/20 06:52:58;;;;;;;24.67;12.18;;;21.00;54.50;;;;;;5094964;28;20062;-70
2022/01/20 06:55:24;;;;;;;22.85;12.52;;;21.00;54.60;;;;;;5077377;28;20045;-70
2022/01/20 06:57:50;;;;;;;21.45;12.57;;;20.80;54.70;;;;;;5077153;28;20048;-72
2022/01/20 07:00:22;;;;;;;27.67;11.95;;;20.60;54.80;;;;;;5061486;28;20040;-71
2022/01/20 07:02:50;;;;;;;26.63;15.23;;;20.60;55.10;;;;;;5078314;28;20021;-70
2022/01/20 07:05:18;;;;;;;22.88;11.98;;;20.50;55.80;;;;;;5078012;28;20036;-71
2022/01/20 07:07:46;;;;;;;21.55;11.38;;;20.60;56.50;;;;;;5078260;28;20774;-70
2022/01/20 07:10:19;;;;;;;17.42;10.80;;;20.40;56.80;;;;;;5078420;28;20059;-70
2022/01/20 07:13:03;;;;;;;22.33;9.73;;;20.40;57.30;;;;;;5078097;28;20100;-71
2022/01/20 07:15:30;;;;;;;17.30;9.70;;;20.30;57.50;;;;;;5095524;28;20040;-72
2022/01/20 07:17:57;;;;;;;19.25;10.63;;;20.40;57.80;;;;;;5078091;28;20037;-72
2022/01/20 07:20:25;;;;;;;17.25;10.23;;;20.30;58.70;;;;;;5110725;28;20895;-73
2022/01/20 07:23:11;;;;;;;20.88;10.52;;;20.30;58.70;;;;;;5095450;28;20089;-71
2022/01/20 07:25:49;;;;;;;17.85;10.73;;;20.10;59.30;;;;;;5078031;28;20032;-72
2022/01/20 07:28:17;;;;;;;14.75;10.07;;;20.30;60.00;;;;;;5094936;28;20055;-71
2022/01/20 07:30:46;;;;;;;23.35;10.43;;;20.10;60.70;;;;;;5111729;28;20052;-72
2022/01/20 07:33:13;;;;;;;14.45;8.73;;;20.10;61.20;;;;;;5074207;28;20048;-71
2022/01/20 07:35:40;;;;;;;15.68;9.77;;;20.10;61.30;;;;;;5091165;28;20105;-70
2022/01/20 07:38:08;;;;;;;24.17;9.82;;;20.10;61.20;;;;;;5074614;28;20041;-69
2022/01/20 07:40:35;;;;;;;17.77;9.43;;;19.90;61.50;;;;;;5090896;28;20049;-71
2022/01/20 07:43:03;;;;;;;17.90;10.27;;;20.00;61.90;;;;;;5074468;28;20044;-72
2022/01/20 07:45:52;;;;;;;18.05;9.45;;;19.90;61.70;;;;;;5069454;28;20079;-70
2022/01/20 07:48:31;;;;;;;16.63;10.60;;;19.90;61.70;;;;;;5074497;28;20048;-71
2022/01/20 07:51:12;;;;;;;16.10;9.65;;;19.90;61.50;;;;;;5074268;28;20044;-70
2022/01/20 07:53:39;;;;;;;20.92;11.65;;;19.90;61.80;;;;;;5074573;28;20067;-70
2022/01/20 07:56:06;;;;;;;21.95;13.50;;;20.00;61.80;;;;;;5074271;28;20037;-71
2022/01/20 07:58:34;;;;;;;19.70;12.65;;;20.10;62.30;;;;;;5074519;28;20075;-70
2022/01/20 08:01:02;;;;;;;22.10;11.60;;;20.00;62.60;;;;;;5074901;28;20052;-70
2022/01/20 08:03:32;;;;;;;15.13;10.45;;;20.00;62.00;;;;;;5074411;28;20037;-72
2022/01/20 08:06:04;;;;;;;20.52;11.25;;;20.00;62.00;;;;;;5074254;28;20099;-70
2022/01/20 08:08:34;;;;;;;22.33;10.65;;;20.20;61.40;;;;;;5074460;28;20037;-70
2022/01/20 08:11:22;;;;;;;17.40;10.73;;;20.00;61.50;;;;;;5077313;28;20037;-70
2022/01/20 08:13:50;;;;;;;18.95;10.25;;;20.00;60.90;;;;;;5094673;28;20036;-71
2022/01/20 08:16:17;;;;;;;19.45;10.40;;;20.00;61.20;;;;;;5077770;28;20104;-69
2022/01/20 08:18:43;;;;;;;18.63;9.48;;;20.00;60.70;;;;;;5077787;28;20033;-69
2022/01/20 08:21:09;;;;;;;12.18;8.82;;;20.00;60.70;;;;;;5094538;28;20052;-73
2022/01/20 08:23:37;;;;;;;17.17;10.35;;;20.00;60.80;;;;;;5061047;28;20032;-69
2022/01/20 08:26:03;;;;;;;22.00;10.20;;;20.00;60.40;;;;;;5077588;28;20096;-70
2022/01/20 08:28:29;;;;;;;20.17;10.80;;;20.00;60.20;;;;;;5077788;28;20041;-70
2022/01/20 08:30:55;;;;;;;22.60;11.65;;;20.10;59.50;;;;;;5077486;28;20063;-70
2022/01/20 08:33:23;;;;;;;23.50;12.40;;;20.00;59.40;;;;;;5077373;28;20434;-69
2022/01/20 08:35:55;;;;;;;22.85;11.77;;;20.10;59.40;;;;;;5077396;28;20049;-70
2022/01/20 08:38:35;;;;;;;25.27;11.73;;;20.00;59.30;;;;;;5077467;28;20041;-69
2022/01/20 08:41:01;;;;;;;18.85;11.50;;;20.00;59.40;;;;;;5077296;28;20068;-69
2022/01/20 08:43:28;;;;;;;24.55;12.75;;;20.00;58.80;;;;;;5077247;28;20111;-69
2022/01/20 08:45:57;;;;;;;28.60;12.68;;;20.10;58.70;;;;;;5060300;28;20048;-70
2022/01/20 08:48:24;;;;;;;20.85;12.70;;;19.90;58.60;;;;;;5077197;28;20041;-70
2022/01/20 08:51:20;;;;;;;19.27;11.63;;;20.00;58.30;;;;;;5060350;28;20061;-72
2022/01/20 08:54:09;;;;;;;18.20;9.85;;;20.10;58.90;;;;;;5077255;28;20041;-72
2022/01/20 08:56:37;;;;;;;24.10;9.88;;;20.30;59.80;;;;;;5110572;28;20054;-70
2022/01/20 08:59:05;;;;;;;16.65;8.63;;;20.50;60.80;;;;;;5077457;28;20072;-73
2022/01/20 09:01:37;;;;;;;16.80;10.10;;;20.60;58.20;;;;;;5066738;28;20033;-73
2022/01/20 09:04:05;;;;;;;22.95;10.50;;;20.80;56.10;;;;;;5073131;28;20116;-70
2022/01/20 09:06:32;;;;;;;18.88;11.25;;;20.80;53.00;;;;;;5073505;28;20069;-71
2022/01/20 09:09:10;;;;;;;20.23;10.50;;;20.90;50.20;;;;;;5073428;28;20037;-69
2022/01/20 09:11:50;;;;;;;25.73;10.98;;;20.90;48.80;;;;;;5089968;28;20052;-69
2022/01/20 09:17:03;;;;;;;25.95;12.32;;;21.00;44.90;;;;;;5057246;28;20076;-71
2022/01/20 09:19:32;;;;;;;29.35;13.52;;;21.10;44.20;;;;;;5055857;28;20041;-70
2022/01/20 09:22:05;;;;;;;23.77;13.88;;;21.20;44.20;;;;;;5071651;28;20101;-72
2022/01/20 09:24:31;;;;;;;29.00;14.63;;;21.20;43.80;;;;;;5055927;28;20029;-72
2022/01/20 09:27:01;;;;;;;28.45;14.65;;;21.20;44.60;;;;;;5072546;28;20041;-70
2022/01/20 09:29:27;;;;;;;25.58;13.00;;;21.20;45.20;;;;;;5072876;28;20045;-71
2022/01/20 09:31:54;;;;;;;30.77;14.30;;;21.30;45.90;;;;;;5055885;28;20056;-70
2022/01/20 09:34:25;;;;;;;25.00;12.20;;;21.20;46.00;;;;;;5055667;28;20065;-70
2022/01/20 09:36:53;;;;;;;30.95;14.65;;;21.40;46.90;;;;;;5055685;28;20042;-71
2022/01/20 09:39:19;;;;;;;25.42;14.00;;;21.40;48.20;;;;;;5054941;28;20048;-70
2022/01/20 09:41:58;;;;;;;30.35;14.23;;;21.40;48.90;;;;;;5055376;28;20037;-71
2022/01/20 09:44:25;;;;;;;21.83;8.15;;;21.40;48.90;;;;;;5089192;28;20044;-70
2022/01/20 09:46:52;;;;;;;17.80;10.02;;;21.40;49.20;;;;;;5071938;28;20033;-70
2022/01/20 09:49:29;;;;;;;21.42;10.73;;;21.50;49.40;;;;;;5055683;28;20042;-69
2022/01/20 09:51:57;;;;;;;20.38;10.38;;;21.60;49.20;;;;;;5072205;28;20037;-70
2022/01/20 09:54:42;;;;;;;19.85;11.00;;;21.50;53.70;;;;;;5088393;28;20041;-70
2022/01/20 09:57:13;;;;;;;15.65;9.50;;;21.70;55.10;;;;;;5054912;28;20055;-71
2022/01/20 09:59:40;;;;;;;19.17;11.05;;;22.00;50.60;;;;;;5072519;28;20052;-71
2022/01/20 10:02:18;;;;;;;19.63;12.27;;;21.80;46.40;;;;;;5072095;28;20100;-71
2022/01/20 10:04:46;;;;;;;17.48;10.68;;;21.70;43.50;;;;;;5071604;28;20052;-71
2022/01/20 10:07:20;;;;;;;36.20;16.23;;;21.50;37.70;;;;;;5072083;28;20033;-71
2022/01/20 10:09:55;;;;;;;27.40;14.02;;;21.80;39.70;;;;;;5056347;28;20052;-70
2022/01/20 10:12:38;;;;;;;18.13;11.15;;;21.90;39.10;;;;;;5055178;28;20049;-70
2022/01/20 10:15:28;;;;;;;16.50;9.68;;;22.00;39.30;;;;;;5055085;28;20045;-71
2022/01/20 10:18:13;;;;;;;13.90;8.88;;;22.10;38.60;;;;;;5056019;28;20591;-71
2022/01/20 10:20:56;;;;;;;16.15;10.05;;;22.00;37.50;;;;;;5087492;28;20053;-70
2022/01/20 10:23:48;;;;;;;15.30;8.30;;;21.90;36.80;;;;;;5071418;28;20045;-73
2022/01/20 10:26:39;;;;;;;11.40;7.55;;;22.00;35.50;;;;;;5055225;28;20022;-70
2022/01/20 10:29:08;;;;;;;10.88;7.60;;;21.90;35.60;;;;;;5071952;28;20064;-70
2022/01/20 10:31:49;;;;;;;14.15;6.60;;;21.90;36.10;;;;;;5072791;28;20041;-71
2022/01/20 10:34:20;;;;;;;21.30;9.15;;;22.00;36.70;;;;;;5057674;28;20049;-71
2022/01/20 10:36:52;;;;;;;15.48;8.07;;;22.00;43.60;;;;;;5058456;28;20036;-71
2022/01/20 10:39:38;;;;;;;8.73;6.38;;;22.30;51.10;;;;;;5058239;28;20140;-70
2022/01/20 10:42:07;;;;;;;11.38;7.28;;;22.50;37.30;;;;;;5058683;28;20025;-70
2022/01/20 10:45:00;;;;;;;12.88;7.03;;;22.50;36.20;;;;;;5057728;28;20043;-70
2022/01/20 10:47:29;;;;;;;12.20;6.20;;;22.20;34.80;;;;;;5055699;28;20096;-70
2022/01/20 10:50:08;;;;;;;13.07;6.55;;;22.20;36.40;;;;;;5091662;28;20048;-70
2022/01/20 10:52:35;;;;;;;10.80;6.07;;;22.20;43.00;;;;;;5058595;28;20037;-71
2022/01/20 10:55:03;;;;;;;10.07;6.18;;;22.40;48.10;;;;;;5075021;28;20048;-71
2022/01/20 10:57:37;;;;;;;10.93;5.43;;;22.40;48.80;;;;;;5058267;28;20047;-70
2022/01/20 11:00:09;;;;;;;12.73;6.22;;;22.40;48.00;;;;;;5058328;28;20580;-71
2022/01/20 11:02:50;;;;;;;14.48;6.03;;;22.30;47.70;;;;;;5058202;28;20071;-72
2022/01/20 11:05:17;;;;;;;10.73;6.07;;;22.50;47.50;;;;;;5074797;28;20033;-71
2022/01/20 11:07:46;;;;;;;14.20;6.70;;;22.30;47.10;;;;;;5091346;28;20068;-70
2022/01/20 11:10:13;;;;;;;10.13;6.75;;;22.30;48.10;;;;;;5057864;28;20037;-72
2022/01/20 11:12:43;;;;;;;8.00;5.38;;;22.20;47.80;;;;;;5075250;28;20048;-72
2022/01/20 11:15:18;;;;;;;9.48;5.32;;;22.20;48.80;;;;;;5058418;28;20033;-72
2022/01/20 11:17:52;;;;;;;11.65;5.65;;;22.20;49.00;;;;;;5074011;28;20071;-72
2022/01/20 11:20:24;;;;;;;12.00;6.78;;;22.20;49.00;;;;;;5075099;28;20105;-71
2022/01/20 11:22:52;;;;;;;15.60;5.78;;;22.10;48.90;;;;;;5058333;28;20071;-71
2022/01/20 11:25:22;;;;;;;10.00;5.63;;;22.20;49.00;;;;;;5058060;28;20038;-71
2022/01/20 11:28:07;;;;;;;10.85;6.40;;;22.20;49.30;;;;;;5074509;28;20060;-72
2022/01/20 11:30:54;;;;;;;10.77;5.85;;;22.20;48.80;;;;;;5078071;28;20086;-71
2022/01/20 11:33:42;;;;;;;12.95;5.45;;;22.20;49.40;;;;;;5077196;28;20044;-72
2022/01/20 11:36:28;;;;;;;10.95;5.97;;;22.30;49.60;;;;;;5095559;28;20051;-71
2022/01/20 11:39:05;;;;;;;9.13;4.50;;;22.30;50.40;;;;;;5095505;28;20073;-70
2022/01/20 11:41:46;;;;;;;11.75;6.15;;;22.20;49.60;;;;;;5095417;28;20795;-69
2022/01/20 11:44:17;;;;;;;9.73;5.28;;;22.20;50.20;;;;;;5096032;28;20036;-69
2022/01/20 11:46:45;;;;;;;8.50;5.40;;;22.20;50.30;;;;;;5099146;28;20028;-70
2022/01/20 11:49:17;;;;;;;9.23;5.50;;;22.00;50.20;;;;;;5099338;28;20037;-69
2022/01/20 11:51:48;;;;;;;10.07;6.15;;;21.90;49.30;;;;;;5099261;28;20041;-70
2022/01/20 11:54:33;;;;;;;13.10;6.20;;;22.10;50.40;;;;;;5098816;28;20036;-69
2022/01/20 11:57:30;;;;;;;11.38;4.75;;;21.80;50.50;;;;;;5081652;28;20040;-69
2022/01/20 12:00:02;;;;;;;9.27;5.40;;;22.00;50.60;;;;;;5093975;28;20099;-70
2022/01/20 12:02:39;;;;;;;5.65;4.18;;;21.80;50.80;;;;;;5098949;28;20062;-77
2022/01/20 12:05:31;;;;;;;8.00;4.35;;;21.90;52.40;;;;;;5081370;28;20037;-73
2022/01/20 12:08:18;;;;;;;11.25;5.47;;;22.00;53.20;;;;;;5098870;28;20047;-72
2022/01/20 12:10:59;;;;;;;9.05;5.50;;;21.90;51.40;;;;;;5098946;28;20043;-71
2022/01/20 12:13:26;;;;;;;8.77;5.53;;;22.00;49.30;;;;;;5098784;28;20102;-72
2022/01/20 12:15:58;;;;;;;12.10;5.68;;;22.00;47.60;;;;;;5098571;28;20037;-71
2022/01/20 12:18:26;;;;;;;10.25;5.90;;;22.00;45.60;;;;;;5081247;28;20070;-70
2022/01/20 12:20:52;;;;;;;11.18;6.20;;;21.90;48.00;;;;;;5079924;28;20137;-69
2022/01/20 12:23:20;;;;;;;10.57;5.32;;;21.70;48.00;;;;;;5097437;28;20044;-70
2022/01/20 12:25:46;;;;;;;11.30;5.28;;;21.80;46.90;;;;;;5098208;28;20474;-70
2022/01/20 12:28:15;;;;;;;9.73;5.95;;;21.70;48.90;;;;;;5098321;28;20042;-70
2022/01/20 12:30:50;;;;;;;9.57;6.28;;;21.60;49.30;;;;;;5097422;28;20066;-71
2022/01/20 12:33:19;;;;;;;9.43;5.10;;;21.50;47.20;;;;;;5097942;28;20059;-70
2022/01/20 12:35:53;;;;;;;9.20;5.47;;;21.60;49.60;;;;;;5097872;28;20071;-70
2022/01/20 12:38:26;;;;;;;13.05;5.70;;;21.50;49.60;;;;;;5080373;28;20036;-70
2022/01/20 12:41:21;;;;;;;14.90;6.40;;;21.40;49.10;;;;;;5097720;28;20044;-71
2022/01/20 12:44:03;;;;;;;10.70;6.35;;;21.40;50.00;;;;;;5098144;28;20457;-70
2022/01/20 12:46:31;;;;;;;15.05;7.50;;;21.40;50.50;;;;;;5096969;28;20040;-71
2022/01/20 12:49:04;;;;;;;12.68;7.47;;;21.30;45.90;;;;;;5097665;28;20033;-70
2022/01/20 12:51:34;;;;;;;18.20;7.03;;;21.00;43.50;;;;;;5097368;28;20039;-70
2022/01/20 12:54:12;;;;;;;17.05;7.55;;;20.80;45.10;;;;;;5096464;28;20063;-70
2022/01/20 12:56:43;;;;;;;13.88;8.32;;;20.70;46.90;;;;;;5095320;28;20041;-70
2022/01/20 12:59:09;;;;;;;11.88;6.95;;;20.60;49.10;;;;;;5096751;28;20045;-70
2022/01/20 13:01:47;;;;;;;12.85;7.60;;;20.60;46.90;;;;;;5096843;28;20063;-70
2022/01/20 13:04:16;;;;;;;15.80;9.35;;;20.50;49.90;;;;;;5097238;28;20125;-69
2022/01/20 13:06:55;;;;;;;13.55;7.20;;;20.70;51.20;;;;;;5098104;28;20074;-70
2022/01/20 13:09:24;;;;;;;11.75;7.20;;;20.70;51.60;;;;;;5090231;28;20067;-71
2022/01/20 13:11:59;;;;;;;11.00;6.35;;;20.70;51.90;;;;;;5077313;28;20041;-71
2022/01/20 13:14:36;;;;;;;15.82;8.27;;;20.80;52.00;;;;;;5076796;28;20182;-70
2022/01/20 13:17:03;;;;;;;15.23;8.50;;;20.70;50.00;;;;;;5075937;28;20032;-70
2022/01/20 13:19:36;;;;;;;11.77;8.05;;;20.70;50.40;;;;;;5076140;28;20032;-71
2022/01/20 13:22:06;;;;;;;15.02;7.93;;;20.70;51.20;;;;;;5076924;28;20025;-71
2022/01/20 13:24:35;;;;;;;16.48;8.80;;;20.70;51.20;;;;;;5076745;28;20045;-70
2022/01/20 13:27:02;;;;;;;12.88;7.82;;;20.60;47.30;;;;;;5076936;28;20063;-72
2022/01/20 13:29:41;;;;;;;14.07;7.15;;;21.00;46.90;;;;;;5076185;28;20048;-71
2022/01/20 13:32:07;;;;;;;11.32;5.82;;;21.40;44.60;;;;;;5076022;28;20056;-71
2022/01/20 13:34:34;;;;;;;11.15;7.05;;;21.90;43.80;;;;;;5077053;28;20045;-70
2022/01/20 13:37:02;;;;;;;9.57;6.07;;;22.20;40.70;;;;;;5077014;28;20033;-71
2022/01/20 13:39:41;;;;;;;10.55;6.32;;;22.20;34.90;;;;;;5076238;28;20045;-72
2022/01/20 13:42:20;;;;;;;13.65;7.50;;;22.00;34.60;;;;;;5076671;28;20033;-70
2022/01/20 13:45:14;;;;;;;13.50;6.15;;;22.00;34.30;;;;;;5076724;28;20040;-70
2022/01/20 13:47:51;;;;;;;8.98;6.25;;;21.90;34.40;;;;;;5076428;28;20044;-71
2022/01/20 13:50:24;;;;;;;8.27;5.63;;;21.80;34.80;;;;;;5076651;28;20124;-70
2022/01/20 13:52:51;;;;;;;9.77;6.25;;;21.90;33.90;;;;;;5076463;28;20067;-69
2022/01/20 13:55:27;;;;;;;11.18;6.65;;;21.80;34.30;;;;;;5076829;28;20118;-71
2022/01/20 13:57:54;;;;;;;9.55;6.95;;;21.90;36.20;;;;;;5059329;28;20049;-71
2022/01/20 14:00:26;;;;;;;11.80;6.75;;;22.00;35.70;;;;;;5076275;28;20068;-70
2022/01/20 14:02:55;;;;;;;10.57;6.73;;;22.00;36.20;;;;;;5087306;28;20060;-71
2022/01/20 14:05:33;;;;;;;14.00;7.40;;;22.00;37.90;;;;;;5076616;28;20039;-71
2022/01/20 14:08:01;;;;;;;12.95;8.57;;;22.20;41.70;;;;;;5059178;28;20071;-70